Weather at Green Horse Private Airstrip [CLOSED]

Public forecast

Using degrees Fahrenheit for public forecast. Weather courtesy of forecast.io.

Closest aviation weather report (METAR) to Green Horse Private Airstrip

Closest report is Moriarty Municipal Airport, 8.9 nm (16.4 km) S.

(retrieved 0 seconds ago)

Closest aviation forecast (TAF) to Green Horse Private Airstrip

Closest forecast is Albuquerque International Sunport, 28.5 nm (52.8 km) W.

2024/04/24 06:39 (retrieved 5 hours ago)

TAF KABQ 240537Z 2406/2506 09021G35KT P6SM SKC FM240800 08012G21KT P6SM SKC FM241100 04008KT P6SM SKC FM241500 VRB05KT P6SM SKC FM242000 20011KT P6SM SCT150